Terminal Aerodrome Forecast
Issued by NWS Amarillo, TX

Home | Current Version | Previous Version | Text Only | Print | Product List | Glossary On
Versions: 1 2 3 4 5 6 7 8 9 10 11 12 13 14 15
000
FTUS44 KAMA 202300
TAFDHT
TAF
KDHT 202320Z 2100/2124 09008KT P6SM SKC
     FM210100 VRB03KT P6SM SKC
     FM210900 VRB04KT 5SM BR SCT010
     FM211500 21015KT P6SM FEW050=

USA.gov is the U.S. government's official web portal to all federal, state and local government web resources and services.